createdAt,value
2023-01-23T00:01:31.681Z,79.93
2023-01-23T00:03:59.362Z,80.59
2023-01-23T00:06:27.246Z,80.36
2023-01-23T00:08:56.375Z,81.09
2023-01-23T00:11:26.561Z,80.61
2023-01-23T00:13:53.682Z,80.43
2023-01-23T00:16:22.835Z,80.39
2023-01-23T00:18:50.573Z,80.05
2023-01-23T00:21:20.680Z,79.42
2023-01-23T00:23:49.844Z,80.00
2023-01-23T00:26:28.643Z,79.43
2023-01-23T00:28:55.939Z,79.57
2023-01-23T00:31:28.715Z,79.87
2023-01-23T00:33:58.044Z,79.96
2023-01-23T00:36:28.832Z,80.56
2023-01-23T00:38:55.878Z,80.09
2023-01-23T00:41:23.046Z,80.75
2023-01-23T00:43:52.084Z,80.62
2023-01-23T00:46:20.257Z,80.57
2023-01-23T00:48:47.361Z,80.78
2023-01-23T00:51:15.078Z,80.79
2023-01-23T00:53:42.801Z,82.23
2023-01-23T00:56:09.805Z,81.87
2023-01-23T00:58:36.946Z,81.54
2023-01-23T01:01:04.058Z,81.53
2023-01-23T01:03:32.215Z,81.36
2023-01-23T01:05:59.272Z,81.00
2023-01-23T01:08:28.405Z,80.92
2023-01-23T01:10:57.163Z,81.11
2023-01-23T01:13:25.285Z,81.34
2023-01-23T01:15:53.719Z,81.33
2023-01-23T01:18:22.356Z,81.98
2023-01-23T01:20:50.302Z,81.62
2023-01-23T01:23:17.427Z,81.93
2023-01-23T01:25:44.505Z,81.84
2023-01-23T01:28:11.609Z,81.51
2023-01-23T01:30:40.026Z,81.64
2023-01-23T01:33:07.348Z,82.07
2023-01-23T01:35:34.470Z,82.59
2023-01-23T01:38:01.459Z,82.81
2023-01-23T01:40:32.557Z,82.89
2023-01-23T01:43:05.996Z,82.86
2023-01-23T01:46:00.476Z,82.70
2023-01-23T01:48:33.553Z,82.12
2023-01-23T01:51:04.110Z,81.84
2023-01-23T01:53:32.983Z,81.38
2023-01-23T01:56:00.721Z,81.90
2023-01-23T01:58:28.662Z,81.15
2023-01-23T02:00:57.177Z,80.95
2023-01-23T02:03:25.441Z,81.30
2023-01-23T02:05:52.581Z,81.15
2023-01-23T02:08:33.736Z,81.17
2023-01-23T02:11:03.499Z,81.68
2023-01-23T02:13:37.033Z,81.44
2023-01-23T02:16:11.570Z,81.50
2023-01-23T02:18:44.673Z,81.78
2023-01-23T02:21:13.419Z,82.67
2023-01-23T02:23:51.288Z,82.62
2023-01-23T02:26:29.582Z,82.50
2023-01-23T02:28:57.441Z,82.58
2023-01-23T02:31:28.213Z,82.72
2023-01-23T02:33:57.678Z,82.67
2023-01-23T02:36:28.608Z,83.22
2023-01-23T02:39:18.912Z,83.23
2023-01-23T02:41:53.076Z,82.59
2023-01-23T02:44:26.970Z,81.90
2023-01-23T02:47:08.106Z,81.89
2023-01-23T02:49:35.138Z,81.54
2023-01-23T02:52:06.148Z,81.12
2023-01-23T02:54:35.599Z,81.04
2023-01-23T03:00:06.296Z,81.17
2023-01-23T03:02:34.999Z,80.69
2023-01-23T03:05:01.872Z,80.11
2023-01-23T03:07:30.143Z,80.10
2023-01-23T03:09:57.070Z,80.50
2023-01-23T03:12:24.049Z,80.16
2023-01-23T03:14:54.877Z,80.08
2023-01-23T03:17:23.351Z,80.41
2023-01-23T03:19:50.309Z,80.31
2023-01-23T03:22:17.391Z,80.00
2023-01-23T03:24:44.283Z,80.18
2023-01-23T03:27:11.349Z,80.42
2023-01-23T03:30:14.972Z,80.82
2023-01-23T03:32:44.373Z,80.84
2023-01-23T03:35:16.743Z,80.92
2023-01-23T03:37:45.081Z,80.83
2023-01-23T03:40:39.693Z,80.94
2023-01-23T03:43:06.900Z,81.07
2023-01-23T03:45:35.977Z,80.90
2023-01-23T03:48:03.043Z,80.90
2023-01-23T03:50:30.884Z,79.93
2023-01-23T03:52:57.831Z,80.09
2023-01-23T03:55:25.551Z,80.25
2023-01-23T03:57:53.644Z,80.19
2023-01-23T04:00:26.741Z,80.98
2023-01-23T04:02:59.553Z,80.46
2023-01-23T04:05:26.749Z,79.97
2023-01-23T04:07:53.761Z,79.69
2023-01-23T04:10:21.081Z,79.71
2023-01-23T04:12:53.389Z,80.13
2023-01-23T04:15:20.341Z,80.42
2023-01-23T04:17:47.499Z,80.27
2023-01-23T04:20:15.025Z,80.77
2023-01-23T04:22:43.834Z,80.19
2023-01-23T04:25:10.789Z,80.62
2023-01-23T04:27:37.973Z,80.90
2023-01-23T04:30:06.637Z,80.27
2023-01-23T04:32:35.044Z,80.60
2023-01-23T04:35:02.209Z,80.86
2023-01-23T04:37:30.572Z,81.26
2023-01-23T04:39:57.494Z,80.89
2023-01-23T04:42:24.394Z,82.18
2023-01-23T04:45:11.905Z,81.98
2023-01-23T04:47:59.065Z,81.62
2023-01-23T04:50:26.565Z,81.47
2023-01-23T04:52:53.608Z,81.50
2023-01-23T04:55:20.505Z,81.18
2023-01-23T04:57:47.449Z,81.26
2023-01-23T05:00:24.236Z,81.78
2023-01-23T05:02:51.785Z,81.29
2023-01-23T05:05:21.237Z,81.22
2023-01-23T05:07:51.566Z,81.20
2023-01-23T05:10:19.367Z,81.90
2023-01-23T05:12:47.740Z,81.99
2023-01-23T05:15:15.234Z,81.25
2023-01-23T05:17:44.462Z,80.91
2023-01-23T05:20:12.576Z,80.70
2023-01-23T05:22:52.654Z,80.46
2023-01-23T05:25:26.572Z,80.33
2023-01-23T05:27:55.655Z,80.59
2023-01-23T05:30:24.190Z,80.53
2023-01-23T05:32:55.740Z,81.17
2023-01-23T05:35:22.600Z,81.17
2023-01-23T05:37:53.574Z,81.26
2023-01-23T05:40:23.910Z,81.12
2023-01-23T05:43:20.070Z,81.33
2023-01-23T05:46:05.505Z,80.51
2023-01-23T05:48:53.173Z,80.58
2023-01-23T05:51:22.143Z,80.72
2023-01-23T05:53:50.037Z,80.63
2023-01-23T05:56:18.018Z,80.19
2023-01-23T05:59:05.469Z,80.63
2023-01-23T06:01:52.581Z,80.92
2023-01-23T06:04:48.059Z,81.24
2023-01-23T06:07:24.453Z,80.71
2023-01-23T06:09:55.474Z,80.72
2023-01-23T06:12:22.396Z,81.42
2023-01-23T06:14:49.537Z,80.87
2023-01-23T06:17:16.443Z,81.19
2023-01-23T06:19:43.680Z,81.04
2023-01-23T06:22:11.208Z,80.85
2023-01-23T06:24:56.476Z,80.83
2023-01-23T06:27:23.796Z,80.42
2023-01-23T06:29:51.589Z,80.48
2023-01-23T06:32:18.629Z,80.82
2023-01-23T06:34:45.817Z,80.50
2023-01-23T06:37:12.702Z,79.63
2023-01-23T06:39:42.969Z,80.28
2023-01-23T06:42:10.842Z,79.82
2023-01-23T06:44:43.451Z,79.89
2023-01-23T06:47:11.370Z,80.23
2023-01-23T06:49:39.320Z,80.33
2023-01-23T06:52:06.532Z,80.50
2023-01-23T06:54:33.610Z,80.76
2023-01-23T06:57:04.524Z,80.48
2023-01-23T06:59:32.407Z,79.81
2023-01-23T07:02:01.627Z,80.07
2023-01-23T07:04:43.060Z,79.71
2023-01-23T07:07:11.299Z,79.75
2023-01-23T07:09:39.687Z,79.55
2023-01-23T07:12:11.031Z,79.77
2023-01-23T07:14:39.065Z,79.72
2023-01-23T07:17:08.532Z,80.15
2023-01-23T07:19:35.966Z,79.99
2023-01-23T07:22:06.545Z,80.48
2023-01-23T07:24:33.651Z,80.66
2023-01-23T07:27:00.646Z,80.50
2023-01-23T07:29:27.585Z,80.59
2023-01-23T07:31:54.752Z,80.36
2023-01-23T07:34:21.744Z,79.91
2023-01-23T07:36:48.674Z,80.22
2023-01-23T07:39:16.308Z,80.44
2023-01-23T07:41:46.371Z,80.23
2023-01-23T07:44:19.893Z,80.50
2023-01-23T07:46:48.077Z,80.50
2023-01-23T07:49:15.773Z,80.27
2023-01-23T07:51:42.720Z,80.76
2023-01-23T07:54:10.273Z,80.60
2023-01-23T07:56:37.219Z,79.91
2023-01-23T07:59:04.147Z,80.18
2023-01-23T08:01:31.143Z,79.79
2023-01-23T08:03:58.141Z,79.85
2023-01-23T08:06:25.291Z,79.93
2023-01-23T08:08:52.259Z,80.53
2023-01-23T08:11:19.630Z,80.13
2023-01-23T08:13:49.999Z,80.16
2023-01-23T08:16:16.956Z,79.82
2023-01-23T08:18:44.310Z,80.49
2023-01-23T08:21:11.352Z,80.61
2023-01-23T08:23:39.000Z,80.55
2023-01-23T08:26:08.808Z,80.19
2023-01-23T08:28:36.485Z,81.03
2023-01-23T08:31:06.725Z,80.35
2023-01-23T08:33:35.398Z,81.13
2023-01-23T08:36:02.917Z,80.86
2023-01-23T08:38:31.588Z,81.76
2023-01-23T08:41:00.869Z,80.78
2023-01-23T08:43:28.655Z,80.75
2023-01-23T08:45:57.502Z,80.38
2023-01-23T08:48:26.477Z,80.50
2023-01-23T08:51:01.934Z,80.06
2023-01-23T08:53:29.888Z,80.04
2023-01-23T08:56:17.303Z,78.85
2023-01-23T08:58:45.000Z,79.48
2023-01-23T09:01:16.946Z,79.24
2023-01-23T09:03:44.062Z,78.77
2023-01-23T09:06:15.557Z,78.44
2023-01-23T09:08:42.520Z,78.71
2023-01-23T09:11:10.554Z,78.11
2023-01-23T09:13:37.540Z,78.61
2023-01-23T09:16:06.129Z,78.63
2023-01-23T09:18:33.113Z,78.70
2023-01-23T09:21:00.308Z,77.98
2023-01-23T09:23:27.299Z,78.21
2023-01-23T09:25:54.243Z,79.91
2023-01-23T09:28:21.188Z,79.24
2023-01-23T09:30:48.174Z,79.67
2023-01-23T09:33:17.032Z,79.14
2023-01-23T09:35:45.607Z,79.03
2023-01-23T09:38:12.789Z,78.76
2023-01-23T09:40:48.666Z,78.80
2023-01-23T09:43:22.890Z,78.29
2023-01-23T09:46:16.309Z,78.65
2023-01-23T09:48:43.455Z,79.47
2023-01-23T09:51:45.612Z,79.49
2023-01-23T09:54:27.113Z,79.32
2023-01-23T09:56:55.967Z,78.65
2023-01-23T09:59:35.558Z,79.14
2023-01-23T10:02:03.066Z,78.08
2023-01-23T10:04:32.100Z,77.56
2023-01-23T10:07:17.140Z,76.70
2023-01-23T10:10:00.740Z,76.16
2023-01-23T10:12:49.324Z,75.80
2023-01-23T10:15:27.547Z,75.58
2023-01-23T10:18:16.036Z,74.94
2023-01-23T10:21:07.882Z,75.11
2023-01-23T10:23:46.755Z,74.75
2023-01-23T10:26:21.867Z,74.96
2023-01-23T10:28:52.139Z,73.93
2023-01-23T10:31:38.717Z,73.84
2023-01-23T10:34:15.292Z,73.63
2023-01-23T10:36:54.042Z,73.44
2023-01-23T10:39:27.884Z,74.44
2023-01-23T10:42:02.106Z,73.86
2023-01-23T10:44:30.115Z,73.73
2023-01-23T10:47:03.330Z,72.49
2023-01-23T10:49:43.296Z,72.22
2023-01-23T10:52:33.000Z,71.87
2023-01-23T10:55:00.917Z,71.98
2023-01-23T10:57:31.441Z,72.06
2023-01-23T11:00:08.460Z,72.67
2023-01-23T11:02:40.909Z,72.61
2023-01-23T11:05:37.577Z,72.08
2023-01-23T11:08:27.703Z,72.68
2023-01-23T11:11:15.488Z,73.71
2023-01-23T11:13:48.608Z,72.98
2023-01-23T11:16:23.218Z,73.13
2023-01-23T11:19:19.587Z,72.34
2023-01-23T11:22:01.408Z,71.82
2023-01-23T11:24:41.693Z,72.74
2023-01-23T11:27:14.922Z,72.82
2023-01-23T11:30:11.041Z,73.04
2023-01-23T11:32:59.385Z,72.70
2023-01-23T11:35:44.593Z,72.57
2023-01-23T11:38:19.766Z,73.65
2023-01-23T11:40:51.692Z,73.12
2023-01-23T11:43:19.283Z,73.42
2023-01-23T11:46:11.195Z,73.96
2023-01-23T11:49:02.464Z,73.68
2023-01-23T11:51:54.374Z,73.74
2023-01-23T11:54:42.927Z,74.38
2023-01-23T11:57:28.630Z,74.75
2023-01-23T12:00:13.926Z,74.52
2023-01-23T12:02:55.102Z,74.32
2023-01-23T12:05:25.010Z,74.46
2023-01-23T12:08:01.015Z,74.75
2023-01-23T12:10:43.386Z,74.61
2023-01-23T12:13:21.979Z,75.16
2023-01-23T12:16:11.781Z,74.64
2023-01-23T12:18:40.446Z,74.79
2023-01-23T12:21:53.342Z,75.09
2023-01-23T12:24:58.851Z,74.89
2023-01-23T12:27:47.568Z,74.24
2023-01-23T12:30:47.778Z,75.86
2023-01-23T12:33:34.432Z,75.73
2023-01-23T12:36:16.191Z,75.75
2023-01-23T12:38:54.216Z,76.02
2023-01-23T12:41:40.678Z,76.12
2023-01-23T12:44:42.729Z,76.07
2023-01-23T12:47:34.550Z,75.76
2023-01-23T12:50:14.453Z,76.52
2023-01-23T12:52:49.437Z,76.93
2023-01-23T12:55:38.505Z,77.12
2023-01-23T12:58:09.308Z,77.18
2023-01-23T13:00:55.700Z,77.93
2023-01-23T13:03:37.300Z,77.61
2023-01-23T13:06:27.930Z,77.62
2023-01-23T13:09:18.803Z,77.46
2023-01-23T13:12:03.904Z,77.27
2023-01-23T13:14:36.743Z,77.59
2023-01-23T13:17:58.839Z,77.06
2023-01-23T13:20:53.206Z,77.79
2023-01-23T13:23:29.206Z,77.58
2023-01-23T13:26:23.318Z,77.98
2023-01-23T13:28:55.572Z,77.57
2023-01-23T13:31:46.766Z,77.77
2023-01-23T13:34:17.359Z,77.31
2023-01-23T13:36:51.652Z,77.59
2023-01-23T13:39:18.493Z,77.28
2023-01-23T13:41:48.105Z,77.53
2023-01-23T13:44:40.417Z,77.60
2023-01-23T14:21:57.219Z,77.43
2023-01-23T14:24:29.258Z,77.21
2023-01-23T14:27:30.477Z,77.28
2023-01-23T14:30:19.766Z,77.69
2023-01-23T14:32:47.201Z,78.15
2023-01-23T14:35:18.775Z,78.62
2023-01-23T14:37:46.976Z,78.60
2023-01-23T14:40:27.052Z,78.20
2023-01-23T14:42:58.867Z,77.64
2023-01-23T14:45:32.124Z,77.84
2023-01-23T14:48:06.119Z,78.19
2023-01-23T14:50:33.886Z,78.13
2023-01-23T14:53:04.050Z,77.94
2023-01-23T14:55:33.237Z,78.40
2023-01-23T14:58:03.805Z,78.10
2023-01-23T15:00:32.132Z,78.81
2023-01-23T15:02:59.112Z,78.46
2023-01-23T15:05:28.441Z,78.96
2023-01-23T15:08:03.163Z,77.54
2023-01-23T15:10:36.100Z,77.69
2023-01-23T15:13:10.044Z,77.96
2023-01-23T15:15:37.562Z,78.51
2023-01-23T15:18:24.403Z,78.46
2023-01-23T15:21:00.528Z,77.69
2023-01-23T15:23:33.848Z,77.95
2023-01-23T15:26:18.908Z,77.79
2023-01-23T15:28:55.035Z,77.62
2023-01-23T15:31:32.550Z,77.58
2023-01-23T15:34:15.055Z,77.36
2023-01-23T15:37:06.590Z,77.05
2023-01-23T15:39:50.705Z,77.66
2023-01-23T15:42:17.805Z,77.31
2023-01-23T15:44:45.083Z,77.56
2023-01-23T15:47:12.168Z,77.83
2023-01-23T15:49:40.562Z,76.95
2023-01-23T15:52:21.844Z,77.14
2023-01-23T15:54:58.775Z,77.08
2023-01-23T15:57:25.772Z,77.28
2023-01-23T15:59:52.633Z,77.15
2023-01-23T16:02:33.251Z,76.97
2023-01-23T16:05:02.073Z,77.13
2023-01-23T16:07:35.954Z,76.89
2023-01-23T16:10:05.669Z,76.33
2023-01-23T16:12:32.962Z,76.89
2023-01-23T16:14:59.885Z,77.33
2023-01-23T16:17:26.870Z,77.23
2023-01-23T16:19:54.649Z,77.25
2023-01-23T16:22:26.619Z,76.77
2023-01-23T16:24:53.894Z,77.48
2023-01-23T16:27:27.723Z,77.44
2023-01-23T16:29:55.816Z,77.39
2023-01-23T16:32:23.182Z,76.93
2023-01-23T16:34:50.153Z,77.42
2023-01-23T16:37:19.028Z,77.77
2023-01-23T16:39:47.878Z,77.42
2023-01-23T16:42:18.651Z,77.61
2023-01-23T16:44:45.772Z,77.02
2023-01-23T16:47:12.763Z,77.05
2023-01-23T16:49:51.562Z,77.32
2023-01-23T16:52:21.574Z,76.68
2023-01-23T16:54:52.554Z,76.81
2023-01-23T16:57:20.815Z,77.47
2023-01-23T16:59:50.393Z,76.75
2023-01-23T17:02:17.365Z,77.40
2023-01-23T17:04:44.349Z,77.60
2023-01-23T17:07:18.090Z,77.72
2023-01-23T17:09:46.134Z,77.49
2023-01-23T17:12:21.097Z,77.45
2023-01-23T17:14:49.487Z,76.94
2023-01-23T17:17:26.075Z,77.58
2023-01-23T17:19:53.259Z,76.83
2023-01-23T17:22:23.712Z,76.80
2023-01-23T17:24:50.748Z,76.80
2023-01-23T17:27:17.754Z,76.66
2023-01-23T17:29:44.936Z,76.86
2023-01-23T17:32:35.464Z,76.75
2023-01-23T17:35:06.336Z,77.36
2023-01-23T17:37:35.005Z,76.99
2023-01-23T17:40:02.180Z,77.28
2023-01-23T17:42:30.680Z,77.22
2023-01-23T17:44:57.552Z,77.38
2023-01-23T17:47:24.742Z,77.03
2023-01-23T17:49:54.840Z,77.81
2023-01-23T17:52:22.129Z,77.21
2023-01-23T17:54:49.767Z,77.32
2023-01-23T17:57:16.847Z,77.41
2023-01-23T17:59:43.907Z,77.17
2023-01-23T18:02:29.214Z,76.85
2023-01-23T18:04:56.526Z,77.11
2023-01-23T18:07:24.243Z,77.02
2023-01-23T18:09:52.580Z,76.70
2023-01-23T18:12:38.875Z,77.12
2023-01-23T18:15:09.279Z,76.71
2023-01-23T18:17:56.128Z,77.35
2023-01-23T18:20:24.113Z,77.39
2023-01-23T18:22:51.592Z,77.41
2023-01-23T18:25:20.066Z,77.07
2023-01-23T18:27:52.969Z,77.30
2023-01-23T18:30:38.712Z,77.78
2023-01-23T18:33:17.715Z,77.39
2023-01-23T18:35:53.979Z,77.42
2023-01-23T18:38:37.861Z,77.34
2023-01-23T18:41:25.230Z,77.63
2023-01-23T18:44:04.362Z,77.98
2023-01-23T18:46:31.804Z,77.81
2023-01-23T18:48:59.710Z,77.82
2023-01-23T18:51:35.979Z,77.69
2023-01-23T18:54:21.164Z,77.81
2023-01-23T18:57:10.262Z,77.46
2023-01-23T19:00:03.059Z,77.35
2023-01-23T19:02:39.945Z,77.17
2023-01-23T19:05:14.038Z,76.68
2023-01-23T19:07:41.134Z,76.85
2023-01-23T19:10:13.947Z,76.68
2023-01-23T19:12:46.474Z,76.38
2023-01-23T19:15:35.708Z,76.18
2023-01-23T19:18:39.412Z,75.94
2023-01-23T19:21:25.168Z,76.55
2023-01-23T19:24:00.665Z,76.77
2023-01-23T19:26:31.017Z,76.64
2023-01-23T19:29:01.546Z,75.96
2023-01-23T19:31:31.305Z,76.67
2023-01-23T19:33:59.517Z,76.91
2023-01-23T19:36:28.846Z,76.35
2023-01-23T19:39:02.228Z,76.58
2023-01-23T19:41:38.255Z,76.51
2023-01-23T19:44:05.284Z,76.67
2023-01-23T19:46:33.475Z,77.23
2023-01-23T19:49:02.844Z,76.21
2023-01-23T19:51:31.832Z,76.42
2023-01-23T19:53:59.118Z,76.54
2023-01-23T19:56:27.205Z,76.56
2023-01-23T19:58:54.400Z,77.13
2023-01-23T20:01:40.463Z,77.28
2023-01-23T20:04:12.368Z,76.87
2023-01-23T20:06:40.885Z,76.86
2023-01-23T20:09:08.479Z,76.55
2023-01-23T20:11:36.514Z,76.80
2023-01-23T20:14:04.024Z,76.53
2023-01-23T20:16:31.012Z,76.14
2023-01-23T20:18:57.925Z,76.41
2023-01-23T20:21:25.756Z,76.35
2023-01-23T20:23:53.114Z,76.33
2023-01-23T20:26:21.774Z,76.35
2023-01-23T20:28:51.237Z,77.01
2023-01-23T20:31:18.381Z,76.14
2023-01-23T20:33:45.648Z,76.29
2023-01-23T20:36:13.732Z,76.83
2023-01-23T20:38:41.872Z,77.47
2023-01-23T20:41:14.559Z,77.30
2023-01-23T20:43:45.343Z,77.85
2023-01-23T20:46:13.817Z,78.23
2023-01-23T20:48:46.084Z,78.25
2023-01-23T20:51:15.816Z,77.69
2023-01-23T20:53:43.247Z,77.24
2023-01-23T20:56:13.170Z,77.22
2023-01-23T20:59:03.252Z,77.32
2023-01-23T21:01:51.637Z,77.83
2023-01-23T21:04:19.259Z,78.32
2023-01-23T21:06:46.529Z,78.04
2023-01-23T21:09:13.386Z,77.98
2023-01-23T21:11:40.360Z,77.48
2023-01-23T21:14:07.363Z,77.24
2023-01-23T21:16:34.482Z,77.37
2023-01-23T21:19:01.586Z,77.67
2023-01-23T21:21:28.600Z,78.29
2023-01-23T21:23:55.675Z,77.89
2023-01-23T21:26:25.568Z,78.22
2023-01-23T21:28:54.210Z,78.19
2023-01-23T21:31:24.572Z,78.07
2023-01-23T21:33:51.794Z,77.70
2023-01-23T21:36:21.657Z,78.25
2023-01-23T21:38:51.230Z,77.49
2023-01-23T21:41:19.210Z,77.44
2023-01-23T21:43:46.743Z,77.45
2023-01-23T21:46:13.797Z,77.02
2023-01-23T21:48:40.900Z,77.40
2023-01-23T21:51:11.922Z,77.70
2023-01-23T21:53:42.089Z,78.90
2023-01-23T21:56:10.299Z,78.81
2023-01-23T21:58:37.674Z,78.45
2023-01-23T22:01:30.014Z,77.88
2023-01-23T22:03:57.207Z,78.44
2023-01-23T22:06:24.328Z,77.65
2023-01-23T22:08:51.318Z,77.87
2023-01-23T22:11:18.264Z,77.96
2023-01-23T22:13:45.094Z,77.60
2023-01-23T22:16:12.452Z,78.00
2023-01-23T22:18:39.378Z,78.00
2023-01-23T22:21:07.061Z,78.63
2023-01-23T22:23:34.435Z,78.96
2023-01-23T22:26:04.027Z,78.75
2023-01-23T22:28:30.923Z,78.54
2023-01-23T22:30:58.138Z,78.87
2023-01-23T22:33:32.827Z,78.36
2023-01-23T22:36:04.457Z,78.46
2023-01-23T22:38:31.962Z,78.18
2023-01-23T22:41:00.583Z,78.37
2023-01-23T22:43:27.903Z,78.32
2023-01-23T22:46:04.948Z,78.29
2023-01-23T22:48:31.981Z,78.52
2023-01-23T22:51:03.838Z,78.76
2023-01-23T22:53:31.099Z,78.28
2023-01-23T22:55:58.564Z,78.62
2023-01-23T22:58:25.662Z,78.22
2023-01-23T23:00:53.539Z,78.28
2023-01-23T23:03:21.532Z,78.46
2023-01-23T23:05:56.898Z,78.13
2023-01-23T23:08:24.294Z,78.66
2023-01-23T23:11:06.667Z,78.21
2023-01-23T23:13:35.546Z,77.82
2023-01-23T23:16:05.051Z,78.17
2023-01-23T23:18:31.921Z,77.82
2023-01-23T23:21:00.989Z,77.83
2023-01-23T23:23:28.099Z,78.13
2023-01-23T23:25:56.198Z,77.39
2023-01-23T23:28:25.414Z,78.64
2023-01-23T23:30:53.472Z,78.49
2023-01-23T23:33:20.590Z,78.09
2023-01-23T23:35:47.552Z,77.67
2023-01-23T23:38:15.079Z,77.97
2023-01-23T23:40:42.283Z,77.66
2023-01-23T23:43:09.957Z,77.57
2023-01-23T23:45:36.941Z,78.20
2023-01-23T23:48:04.015Z,78.43
2023-01-23T23:50:32.601Z,79.05
2023-01-23T23:52:59.739Z,79.18
2023-01-23T23:55:26.671Z,79.37
2023-01-23T23:57:53.595Z,80.12
